sensor_id;sensor_type;location;lat;lon;timestamp;temperature;humidity
33837;DHT22;20140;49.356;8.812;2023-04-16T00:02:15;8.50;99.90
33837;DHT22;20140;49.356;8.812;2023-04-16T00:04:41;8.60;99.90
33837;DHT22;20140;49.356;8.812;2023-04-16T00:07:07;8.60;99.90
33837;DHT22;20140;49.356;8.812;2023-04-16T00:09:32;8.60;99.90
33837;DHT22;20140;49.356;8.812;2023-04-16T00:11:58;8.60;99.90
33837;DHT22;20140;49.356;8.812;2023-04-16T00:14:24;8.50;99.90
33837;DHT22;20140;49.356;8.812;2023-04-16T00:16:49;8.50;99.90
33837;DHT22;20140;49.356;8.812;2023-04-16T00:19:15;8.50;99.90
33837;DHT22;20140;49.356;8.812;2023-04-16T00:21:40;8.60;99.90
33837;DHT22;20140;49.356;8.812;2023-04-16T00:24:06;8.50;99.90
33837;DHT22;20140;49.356;8.812;2023-04-16T00:26:31;8.50;99.90
33837;DHT22;20140;49.356;8.812;2023-04-16T00:28:57;8.60;99.90
33837;DHT22;20140;49.356;8.812;2023-04-16T00:31:41;8.50;99.90
33837;DHT22;20140;49.356;8.812;2023-04-16T00:34:06;8.50;99.90
33837;DHT22;20140;49.356;8.812;2023-04-16T00:36:32;8.50;99.90
33837;DHT22;20140;49.356;8.812;2023-04-16T00:38:57;8.50;99.90
33837;DHT22;20140;49.356;8.812;2023-04-16T00:41:23;8.60;99.90
33837;DHT22;20140;49.356;8.812;2023-04-16T00:43:48;8.60;99.90
33837;DHT22;20140;49.356;8.812;2023-04-16T00:46:15;8.60;99.90
33837;DHT22;20140;49.356;8.812;2023-04-16T00:48:42;8.50;99.90
33837;DHT22;20140;49.356;8.812;2023-04-16T00:51:09;8.60;99.90
33837;DHT22;20140;49.356;8.812;2023-04-16T00:53:35;8.50;99.90
33837;DHT22;20140;49.356;8.812;2023-04-16T00:56:05;8.50;99.90
33837;DHT22;20140;49.356;8.812;2023-04-16T00:58:32;8.50;99.90
33837;DHT22;20140;49.356;8.812;2023-04-16T01:00:58;8.60;99.90
33837;DHT22;20140;49.356;8.812;2023-04-16T01:03:33;8.60;99.90
33837;DHT22;20140;49.356;8.812;2023-04-16T01:06:00;8.60;99.90
33837;DHT22;20140;49.356;8.812;2023-04-16T01:08:25;8.60;99.90
33837;DHT22;20140;49.356;8.812;2023-04-16T01:10:51;8.60;99.90
33837;DHT22;20140;49.356;8.812;2023-04-16T01:13:16;8.60;99.90
33837;DHT22;20140;49.356;8.812;2023-04-16T01:15:42;8.60;99.90
33837;DHT22;20140;49.356;8.812;2023-04-16T01:18:14;8.50;99.90
33837;DHT22;20140;49.356;8.812;2023-04-16T01:20:40;8.60;99.90
33837;DHT22;20140;49.356;8.812;2023-04-16T01:23:06;8.60;99.90
33837;DHT22;20140;49.356;8.812;2023-04-16T01:25:31;8.60;99.90
33837;DHT22;20140;49.356;8.812;2023-04-16T01:27:57;8.60;99.90
33837;DHT22;20140;49.356;8.812;2023-04-16T01:30:23;8.70;99.90
33837;DHT22;20140;49.356;8.812;2023-04-16T01:32:49;8.60;99.90
33837;DHT22;20140;49.356;8.812;2023-04-16T01:35:15;8.60;99.90
33837;DHT22;20140;49.356;8.812;2023-04-16T01:37:42;8.60;99.90
33837;DHT22;20140;49.356;8.812;2023-04-16T01:40:08;8.60;99.90
33837;DHT22;20140;49.356;8.812;2023-04-16T01:42:33;8.60;99.90
33837;DHT22;20140;49.356;8.812;2023-04-16T01:44:59;8.70;99.90
33837;DHT22;20140;49.356;8.812;2023-04-16T01:47:25;8.60;99.90
33837;DHT22;20140;49.356;8.812;2023-04-16T01:49:51;8.50;99.90
33837;DHT22;20140;49.356;8.812;2023-04-16T01:52:16;8.60;99.90
33837;DHT22;20140;49.356;8.812;2023-04-16T01:54:42;8.60;99.90
33837;DHT22;20140;49.356;8.812;2023-04-16T01:57:08;8.60;99.90
33837;DHT22;20140;49.356;8.812;2023-04-16T01:59:33;8.60;99.90
33837;DHT22;20140;49.356;8.812;2023-04-16T02:02:03;8.50;99.90
33837;DHT22;20140;49.356;8.812;2023-04-16T02:04:31;8.50;99.90
33837;DHT22;20140;49.356;8.812;2023-04-16T02:06:56;8.50;99.90
33837;DHT22;20140;49.356;8.812;2023-04-16T02:09:22;8.60;99.90
33837;DHT22;20140;49.356;8.812;2023-04-16T02:11:48;8.60;99.90
33837;DHT22;20140;49.356;8.812;2023-04-16T02:14:14;8.50;99.90
33837;DHT22;20140;49.356;8.812;2023-04-16T02:16:39;8.60;99.90
33837;DHT22;20140;49.356;8.812;2023-04-16T02:19:05;8.60;99.90
33837;DHT22;20140;49.356;8.812;2023-04-16T02:21:31;8.60;99.90
33837;DHT22;20140;49.356;8.812;2023-04-16T02:23:56;8.60;99.90
33837;DHT22;20140;49.356;8.812;2023-04-16T02:26:22;8.60;99.90
33837;DHT22;20140;49.356;8.812;2023-04-16T02:28:47;8.60;99.90
33837;DHT22;20140;49.356;8.812;2023-04-16T02:31:13;8.50;99.90
33837;DHT22;20140;49.356;8.812;2023-04-16T02:33:42;8.50;99.90
33837;DHT22;20140;49.356;8.812;2023-04-16T02:36:07;8.60;99.90
33837;DHT22;20140;49.356;8.812;2023-04-16T02:38:35;8.60;99.90
33837;DHT22;20140;49.356;8.812;2023-04-16T02:41:01;8.50;99.90
33837;DHT22;20140;49.356;8.812;2023-04-16T02:43:27;8.50;99.90
33837;DHT22;20140;49.356;8.812;2023-04-16T02:45:52;8.60;99.90
33837;DHT22;20140;49.356;8.812;2023-04-16T02:48:18;8.60;99.90
33837;DHT22;20140;49.356;8.812;2023-04-16T02:50:43;8.60;99.90
33837;DHT22;20140;49.356;8.812;2023-04-16T02:53:09;8.50;99.90
33837;DHT22;20140;49.356;8.812;2023-04-16T02:55:35;8.50;99.90
33837;DHT22;20140;49.356;8.812;2023-04-16T02:58:00;8.60;99.90
33837;DHT22;20140;49.356;8.812;2023-04-16T03:00:26;8.60;99.90
33837;DHT22;20140;49.356;8.812;2023-04-16T03:02:51;8.50;99.90
33837;DHT22;20140;49.356;8.812;2023-04-16T03:05:17;8.50;99.90
33837;DHT22;20140;49.356;8.812;2023-04-16T03:07:42;8.50;99.90
33837;DHT22;20140;49.356;8.812;2023-04-16T03:10:08;8.50;99.90
33837;DHT22;20140;49.356;8.812;2023-04-16T03:12:34;8.50;99.90
33837;DHT22;20140;49.356;8.812;2023-04-16T03:15:00;8.50;99.90
33837;DHT22;20140;49.356;8.812;2023-04-16T03:17:26;8.40;99.90
33837;DHT22;20140;49.356;8.812;2023-04-16T03:19:52;8.40;99.90
33837;DHT22;20140;49.356;8.812;2023-04-16T03:22:17;8.40;99.90
33837;DHT22;20140;49.356;8.812;2023-04-16T03:24:43;8.40;99.90
33837;DHT22;20140;49.356;8.812;2023-04-16T03:27:08;8.40;99.90
33837;DHT22;20140;49.356;8.812;2023-04-16T03:29:36;8.50;99.90
33837;DHT22;20140;49.356;8.812;2023-04-16T03:32:02;8.50;99.90
33837;DHT22;20140;49.356;8.812;2023-04-16T03:34:28;8.40;99.90
33837;DHT22;20140;49.356;8.812;2023-04-16T03:36:53;8.50;99.90
33837;DHT22;20140;49.356;8.812;2023-04-16T03:39:19;8.50;99.90
33837;DHT22;20140;49.356;8.812;2023-04-16T03:41:44;8.50;99.90
33837;DHT22;20140;49.356;8.812;2023-04-16T03:44:10;8.40;99.90
33837;DHT22;20140;49.356;8.812;2023-04-16T03:46:35;8.40;99.90
33837;DHT22;20140;49.356;8.812;2023-04-16T03:49:01;8.50;99.90
33837;DHT22;20140;49.356;8.812;2023-04-16T03:51:27;8.50;99.90
33837;DHT22;20140;49.356;8.812;2023-04-16T03:53:52;8.50;99.90
33837;DHT22;20140;49.356;8.812;2023-04-16T03:56:17;8.50;99.90
33837;DHT22;20140;49.356;8.812;2023-04-16T03:58:43;8.50;99.90
33837;DHT22;20140;49.356;8.812;2023-04-16T04:01:08;8.50;99.90
33837;DHT22;20140;49.356;8.812;2023-04-16T04:03:34;8.50;99.90
33837;DHT22;20140;49.356;8.812;2023-04-16T04:06:00;8.50;99.90
33837;DHT22;20140;49.356;8.812;2023-04-16T04:08:25;8.50;99.90
33837;DHT22;20140;49.356;8.812;2023-04-16T04:10:50;8.50;99.90
33837;DHT22;20140;49.356;8.812;2023-04-16T04:13:16;8.50;99.90
33837;DHT22;20140;49.356;8.812;2023-04-16T04:15:43;8.60;99.90
33837;DHT22;20140;49.356;8.812;2023-04-16T04:18:08;8.50;99.90
33837;DHT22;20140;49.356;8.812;2023-04-16T04:20:37;8.50;99.90
33837;DHT22;20140;49.356;8.812;2023-04-16T04:23:03;8.50;99.90
33837;DHT22;20140;49.356;8.812;2023-04-16T04:25:28;8.50;99.90
33837;DHT22;20140;49.356;8.812;2023-04-16T04:27:54;8.50;99.90
33837;DHT22;20140;49.356;8.812;2023-04-16T04:30:20;8.50;99.90
33837;DHT22;20140;49.356;8.812;2023-04-16T04:32:45;8.50;99.90
33837;DHT22;20140;49.356;8.812;2023-04-16T04:35:11;8.50;99.90
33837;DHT22;20140;49.356;8.812;2023-04-16T04:37:36;8.40;99.90
33837;DHT22;20140;49.356;8.812;2023-04-16T04:40:02;8.50;99.90
33837;DHT22;20140;49.356;8.812;2023-04-16T04:42:27;8.40;99.90
33837;DHT22;20140;49.356;8.812;2023-04-16T04:44:53;8.50;99.90
33837;DHT22;20140;49.356;8.812;2023-04-16T04:47:18;8.50;99.90
33837;DHT22;20140;49.356;8.812;2023-04-16T04:49:44;8.50;99.90
33837;DHT22;20140;49.356;8.812;2023-04-16T04:52:10;8.50;99.90
33837;DHT22;20140;49.356;8.812;2023-04-16T04:54:36;8.60;99.90
33837;DHT22;20140;49.356;8.812;2023-04-16T04:57:05;8.60;99.90
33837;DHT22;20140;49.356;8.812;2023-04-16T04:59:31;8.50;99.90
33837;DHT22;20140;49.356;8.812;2023-04-16T05:01:56;8.50;99.90
33837;DHT22;20140;49.356;8.812;2023-04-16T05:04:22;8.60;99.90
33837;DHT22;20140;49.356;8.812;2023-04-16T05:06:47;8.60;99.90
33837;DHT22;20140;49.356;8.812;2023-04-16T05:09:13;8.60;99.90
33837;DHT22;20140;49.356;8.812;2023-04-16T05:11:40;8.60;99.90
33837;DHT22;20140;49.356;8.812;2023-04-16T05:14:06;8.60;99.90
33837;DHT22;20140;49.356;8.812;2023-04-16T05:16:34;8.60;99.90
33837;DHT22;20140;49.356;8.812;2023-04-16T05:19:00;8.60;99.90
33837;DHT22;20140;49.356;8.812;2023-04-16T05:21:26;8.60;99.90
33837;DHT22;20140;49.356;8.812;2023-04-16T05:23:51;8.70;99.90
33837;DHT22;20140;49.356;8.812;2023-04-16T05:26:17;8.60;99.90
33837;DHT22;20140;49.356;8.812;2023-04-16T05:28:42;8.70;99.90
33837;DHT22;20140;49.356;8.812;2023-04-16T05:31:08;8.70;99.90
33837;DHT22;20140;49.356;8.812;2023-04-16T05:33:33;8.70;99.90
33837;DHT22;20140;49.356;8.812;2023-04-16T05:35:59;8.70;99.90
33837;DHT22;20140;49.356;8.812;2023-04-16T05:38:24;8.70;99.90
33837;DHT22;20140;49.356;8.812;2023-04-16T05:40:50;8.70;99.90
33837;DHT22;20140;49.356;8.812;2023-04-16T05:43:16;8.70;99.90
33837;DHT22;20140;49.356;8.812;2023-04-16T05:45:41;8.70;99.90
33837;DHT22;20140;49.356;8.812;2023-04-16T05:48:07;8.80;99.90
33837;DHT22;20140;49.356;8.812;2023-04-16T05:50:36;8.70;99.90
33837;DHT22;20140;49.356;8.812;2023-04-16T05:53:05;8.80;99.90
33837;DHT22;20140;49.356;8.812;2023-04-16T05:55:31;8.80;99.90
33837;DHT22;20140;49.356;8.812;2023-04-16T05:57:56;8.80;99.90
33837;DHT22;20140;49.356;8.812;2023-04-16T06:00:22;8.80;99.90
33837;DHT22;20140;49.356;8.812;2023-04-16T06:02:47;8.80;99.90
33837;DHT22;20140;49.356;8.812;2023-04-16T06:05:13;8.80;99.90
33837;DHT22;20140;49.356;8.812;2023-04-16T06:07:39;8.80;99.90
33837;DHT22;20140;49.356;8.812;2023-04-16T06:10:04;8.80;99.90
33837;DHT22;20140;49.356;8.812;2023-04-16T06:12:30;8.80;99.90
33837;DHT22;20140;49.356;8.812;2023-04-16T06:14:56;8.80;99.90
33837;DHT22;20140;49.356;8.812;2023-04-16T06:17:21;8.80;99.90
33837;DHT22;20140;49.356;8.812;2023-04-16T06:19:47;8.80;99.90
33837;DHT22;20140;49.356;8.812;2023-04-16T06:22:12;8.90;99.90
33837;DHT22;20140;49.356;8.812;2023-04-16T06:24:38;8.90;99.90
33837;DHT22;20140;49.356;8.812;2023-04-16T06:27:03;8.70;99.90
33837;DHT22;20140;49.356;8.812;2023-04-16T06:29:29;8.80;99.90
33837;DHT22;20140;49.356;8.812;2023-04-16T06:31:55;8.80;99.90
33837;DHT22;20140;49.356;8.812;2023-04-16T06:34:20;8.90;99.90
33837;DHT22;20140;49.356;8.812;2023-04-16T06:36:46;8.80;99.90
33837;DHT22;20140;49.356;8.812;2023-04-16T06:39:11;8.80;99.90
33837;DHT22;20140;49.356;8.812;2023-04-16T06:41:37;8.80;99.90
33837;DHT22;20140;49.356;8.812;2023-04-16T06:44:02;8.80;99.90
33837;DHT22;20140;49.356;8.812;2023-04-16T06:46:28;8.80;99.90
33837;DHT22;20140;49.356;8.812;2023-04-16T06:48:53;8.80;99.90
33837;DHT22;20140;49.356;8.812;2023-04-16T06:51:19;8.90;99.90
33837;DHT22;20140;49.356;8.812;2023-04-16T06:53:45;8.90;99.90
33837;DHT22;20140;49.356;8.812;2023-04-16T06:56:10;8.90;99.90
33837;DHT22;20140;49.356;8.812;2023-04-16T06:58:36;9.00;99.90
33837;DHT22;20140;49.356;8.812;2023-04-16T07:01:01;8.90;99.90
33837;DHT22;20140;49.356;8.812;2023-04-16T07:03:27;8.90;99.90
33837;DHT22;20140;49.356;8.812;2023-04-16T07:05:52;8.90;99.90
33837;DHT22;20140;49.356;8.812;2023-04-16T07:08:18;9.00;99.90
33837;DHT22;20140;49.356;8.812;2023-04-16T07:10:43;9.00;99.90
33837;DHT22;20140;49.356;8.812;2023-04-16T07:13:09;9.00;99.90
33837;DHT22;20140;49.356;8.812;2023-04-16T07:15:35;9.00;99.90
33837;DHT22;20140;49.356;8.812;2023-04-16T07:18:01;9.00;99.90
33837;DHT22;20140;49.356;8.812;2023-04-16T07:20:26;9.00;99.90
33837;DHT22;20140;49.356;8.812;2023-04-16T07:22:52;9.00;99.90
33837;DHT22;20140;49.356;8.812;2023-04-16T07:25:17;9.00;99.90
33837;DHT22;20140;49.356;8.812;2023-04-16T07:27:43;9.00;99.90
33837;DHT22;20140;49.356;8.812;2023-04-16T07:30:09;9.00;99.90
33837;DHT22;20140;49.356;8.812;2023-04-16T07:32:35;9.00;99.90
33837;DHT22;20140;49.356;8.812;2023-04-16T07:35:00;9.00;99.90
33837;DHT22;20140;49.356;8.812;2023-04-16T07:37:26;8.90;99.90
33837;DHT22;20140;49.356;8.812;2023-04-16T07:39:51;9.00;99.90
33837;DHT22;20140;49.356;8.812;2023-04-16T07:42:20;8.90;99.90
33837;DHT22;20140;49.356;8.812;2023-04-16T07:44:45;9.00;99.90
33837;DHT22;20140;49.356;8.812;2023-04-16T07:47:11;9.00;99.90
33837;DHT22;20140;49.356;8.812;2023-04-16T07:49:36;9.00;99.90
33837;DHT22;20140;49.356;8.812;2023-04-16T07:52:02;9.10;99.90
33837;DHT22;20140;49.356;8.812;2023-04-16T07:54:27;9.20;99.90
33837;DHT22;20140;49.356;8.812;2023-04-16T07:56:53;9.20;99.90
33837;DHT22;20140;49.356;8.812;2023-04-16T07:59:18;9.10;99.90
33837;DHT22;20140;49.356;8.812;2023-04-16T08:01:44;9.10;99.90
33837;DHT22;20140;49.356;8.812;2023-04-16T08:04:09;9.00;99.90
33837;DHT22;20140;49.356;8.812;2023-04-16T08:06:35;9.00;99.90
33837;DHT22;20140;49.356;8.812;2023-04-16T08:09:01;9.00;99.90
33837;DHT22;20140;49.356;8.812;2023-04-16T08:11:26;9.00;99.90
33837;DHT22;20140;49.356;8.812;2023-04-16T08:13:52;9.00;99.90
33837;DHT22;20140;49.356;8.812;2023-04-16T08:16:17;9.00;99.90
33837;DHT22;20140;49.356;8.812;2023-04-16T08:18:43;9.00;99.90
33837;DHT22;20140;49.356;8.812;2023-04-16T08:21:08;9.00;99.90
33837;DHT22;20140;49.356;8.812;2023-04-16T08:23:34;9.00;99.90
33837;DHT22;20140;49.356;8.812;2023-04-16T08:26:00;9.10;99.90
33837;DHT22;20140;49.356;8.812;2023-04-16T08:28:26;9.10;99.90
33837;DHT22;20140;49.356;8.812;2023-04-16T08:30:51;9.10;99.90
33837;DHT22;20140;49.356;8.812;2023-04-16T08:33:17;9.10;99.90
33837;DHT22;20140;49.356;8.812;2023-04-16T08:35:42;9.10;99.90
33837;DHT22;20140;49.356;8.812;2023-04-16T08:38:08;9.10;99.90
33837;DHT22;20140;49.356;8.812;2023-04-16T08:40:37;9.10;99.90
33837;DHT22;20140;49.356;8.812;2023-04-16T08:43:07;9.00;99.90
33837;DHT22;20140;49.356;8.812;2023-04-16T08:45:35;9.00;99.90
33837;DHT22;20140;49.356;8.812;2023-04-16T08:48:04;9.00;99.90
33837;DHT22;20140;49.356;8.812;2023-04-16T08:50:32;9.10;99.90
33837;DHT22;20140;49.356;8.812;2023-04-16T08:52:59;9.10;99.90
33837;DHT22;20140;49.356;8.812;2023-04-16T08:57:57;9.20;99.90
33837;DHT22;20140;49.356;8.812;2023-04-16T09:00:24;9.10;99.90
33837;DHT22;20140;49.356;8.812;2023-04-16T09:02:50;9.10;99.90
33837;DHT22;20140;49.356;8.812;2023-04-16T09:05:16;9.10;99.90
33837;DHT22;20140;49.356;8.812;2023-04-16T09:07:46;9.10;99.90
33837;DHT22;20140;49.356;8.812;2023-04-16T09:10:13;9.20;99.90
33837;DHT22;20140;49.356;8.812;2023-04-16T09:12:41;9.30;99.90
33837;DHT22;20140;49.356;8.812;2023-04-16T09:15:09;9.30;99.90
33837;DHT22;20140;49.356;8.812;2023-04-16T09:17:35;9.30;99.90
33837;DHT22;20140;49.356;8.812;2023-04-16T09:20:02;9.20;99.90
33837;DHT22;20140;49.356;8.812;2023-04-16T09:22:30;9.30;99.90
33837;DHT22;20140;49.356;8.812;2023-04-16T09:24:55;9.40;99.90
33837;DHT22;20140;49.356;8.812;2023-04-16T09:27:21;9.40;99.90
33837;DHT22;20140;49.356;8.812;2023-04-16T09:29:47;9.20;99.90
33837;DHT22;20140;49.356;8.812;2023-04-16T09:32:13;9.30;99.90
33837;DHT22;20140;49.356;8.812;2023-04-16T09:34:57;9.30;99.90
33837;DHT22;20140;49.356;8.812;2023-04-16T09:37:24;9.30;99.90
33837;DHT22;20140;49.356;8.812;2023-04-16T09:39:58;9.20;99.90
33837;DHT22;20140;49.356;8.812;2023-04-16T09:42:32;9.20;99.90
33837;DHT22;20140;49.356;8.812;2023-04-16T09:44:58;9.20;99.90
33837;DHT22;20140;49.356;8.812;2023-04-16T09:47:25;9.20;99.90
33837;DHT22;20140;49.356;8.812;2023-04-16T09:49:51;9.30;99.90
33837;DHT22;20140;49.356;8.812;2023-04-16T09:52:19;9.20;99.90
33837;DHT22;20140;49.356;8.812;2023-04-16T09:54:52;9.20;99.90
33837;DHT22;20140;49.356;8.812;2023-04-16T09:57:21;9.20;99.90
33837;DHT22;20140;49.356;8.812;2023-04-16T09:59:51;9.30;99.90
33837;DHT22;20140;49.356;8.812;2023-04-16T10:02:16;9.20;99.90
33837;DHT22;20140;49.356;8.812;2023-04-16T10:04:50;9.20;99.90
33837;DHT22;20140;49.356;8.812;2023-04-16T10:07:16;9.30;99.90
33837;DHT22;20140;49.356;8.812;2023-04-16T10:09:42;9.30;99.90
33837;DHT22;20140;49.356;8.812;2023-04-16T10:12:08;9.30;99.90
33837;DHT22;20140;49.356;8.812;2023-04-16T10:14:35;9.30;99.90
33837;DHT22;20140;49.356;8.812;2023-04-16T10:17:02;9.30;99.90
33837;DHT22;20140;49.356;8.812;2023-04-16T10:19:28;9.40;99.90
33837;DHT22;20140;49.356;8.812;2023-04-16T10:21:56;9.50;99.90
33837;DHT22;20140;49.356;8.812;2023-04-16T10:24:22;9.60;99.90
33837;DHT22;20140;49.356;8.812;2023-04-16T10:26:51;9.40;99.90
33837;DHT22;20140;49.356;8.812;2023-04-16T10:29:18;9.40;99.90
33837;DHT22;20140;49.356;8.812;2023-04-16T10:31:44;9.30;99.90
33837;DHT22;20140;49.356;8.812;2023-04-16T10:34:10;9.30;99.90
33837;DHT22;20140;49.356;8.812;2023-04-16T10:36:36;9.40;99.90
33837;DHT22;20140;49.356;8.812;2023-04-16T10:39:03;9.50;99.90
33837;DHT22;20140;49.356;8.812;2023-04-16T10:41:31;9.30;99.90
33837;DHT22;20140;49.356;8.812;2023-04-16T10:44:08;9.30;99.90
33837;DHT22;20140;49.356;8.812;2023-04-16T10:46:46;9.40;99.90
33837;DHT22;20140;49.356;8.812;2023-04-16T10:52:00;9.30;99.90
33837;DHT22;20140;49.356;8.812;2023-04-16T10:54:34;9.30;99.90
33837;DHT22;20140;49.356;8.812;2023-04-16T10:57:03;9.30;99.90
33837;DHT22;20140;49.356;8.812;2023-04-16T10:59:36;9.30;99.90
33837;DHT22;20140;49.356;8.812;2023-04-16T11:02:13;9.30;99.90
33837;DHT22;20140;49.356;8.812;2023-04-16T11:04:42;9.30;99.90
33837;DHT22;20140;49.356;8.812;2023-04-16T11:12:26;9.40;99.90
33837;DHT22;20140;49.356;8.812;2023-04-16T11:20:02;9.60;99.90
33837;DHT22;20140;49.356;8.812;2023-04-16T11:22:30;9.60;99.90
33837;DHT22;20140;49.356;8.812;2023-04-16T11:24:55;9.60;99.90
33837;DHT22;20140;49.356;8.812;2023-04-16T11:27:22;9.50;99.90
33837;DHT22;20140;49.356;8.812;2023-04-16T11:30:07;9.50;99.90
33837;DHT22;20140;49.356;8.812;2023-04-16T11:32:35;9.40;99.90
33837;DHT22;20140;49.356;8.812;2023-04-16T11:37:57;9.50;99.90
33837;DHT22;20140;49.356;8.812;2023-04-16T11:40:23;9.60;99.90
33837;DHT22;20140;49.356;8.812;2023-04-16T11:42:49;9.70;99.90
33837;DHT22;20140;49.356;8.812;2023-04-16T11:45:15;9.60;99.90
33837;DHT22;20140;49.356;8.812;2023-04-16T11:47:50;9.60;99.90
33837;DHT22;20140;49.356;8.812;2023-04-16T11:50:18;9.60;99.90
33837;DHT22;20140;49.356;8.812;2023-04-16T11:52:44;9.60;99.90
33837;DHT22;20140;49.356;8.812;2023-04-16T11:55:10;9.60;99.90
33837;DHT22;20140;49.356;8.812;2023-04-16T11:57:36;9.60;99.90
33837;DHT22;20140;49.356;8.812;2023-04-16T12:00:03;9.60;99.90
33837;DHT22;20140;49.356;8.812;2023-04-16T12:02:41;9.60;99.90
33837;DHT22;20140;49.356;8.812;2023-04-16T12:07:51;9.80;99.90
33837;DHT22;20140;49.356;8.812;2023-04-16T12:10:16;9.90;99.90
33837;DHT22;20140;49.356;8.812;2023-04-16T12:12:42;10.00;99.90
33837;DHT22;20140;49.356;8.812;2023-04-16T12:15:08;9.80;99.90
33837;DHT22;20140;49.356;8.812;2023-04-16T12:17:35;9.80;99.90
33837;DHT22;20140;49.356;8.812;2023-04-16T12:20:03;9.70;99.90
33837;DHT22;20140;49.356;8.812;2023-04-16T12:22:33;9.70;99.90
33837;DHT22;20140;49.356;8.812;2023-04-16T12:27:42;9.80;99.90
33837;DHT22;20140;49.356;8.812;2023-04-16T12:30:08;9.70;99.90
33837;DHT22;20140;49.356;8.812;2023-04-16T12:32:34;9.70;99.90
33837;DHT22;20140;49.356;8.812;2023-04-16T12:34:59;9.80;99.90
33837;DHT22;20140;49.356;8.812;2023-04-16T12:37:25;9.90;99.90
33837;DHT22;20140;49.356;8.812;2023-04-16T12:39:51;9.90;99.90
33837;DHT22;20140;49.356;8.812;2023-04-16T12:42:17;9.90;99.90
33837;DHT22;20140;49.356;8.812;2023-04-16T12:44:42;9.90;99.90
33837;DHT22;20140;49.356;8.812;2023-04-16T12:47:08;9.90;99.90
33837;DHT22;20140;49.356;8.812;2023-04-16T12:49:35;10.00;99.90
33837;DHT22;20140;49.356;8.812;2023-04-16T12:52:01;10.10;99.90
33837;DHT22;20140;49.356;8.812;2023-04-16T12:54:27;9.90;99.90
33837;DHT22;20140;49.356;8.812;2023-04-16T12:56:58;10.00;99.90
33837;DHT22;20140;49.356;8.812;2023-04-16T12:59:23;10.00;99.90
33837;DHT22;20140;49.356;8.812;2023-04-16T13:01:49;9.90;99.90
33837;DHT22;20140;49.356;8.812;2023-04-16T13:04:15;10.00;99.90
33837;DHT22;20140;49.356;8.812;2023-04-16T13:06:40;10.10;99.90
33837;DHT22;20140;49.356;8.812;2023-04-16T13:09:06;10.00;99.90
33837;DHT22;20140;49.356;8.812;2023-04-16T13:11:31;10.00;99.90
33837;DHT22;20140;49.356;8.812;2023-04-16T13:13:57;10.00;99.90
33837;DHT22;20140;49.356;8.812;2023-04-16T13:16:23;10.10;99.90
33837;DHT22;20140;49.356;8.812;2023-04-16T13:18:48;10.10;99.90
33837;DHT22;20140;49.356;8.812;2023-04-16T13:21:14;10.10;99.90
33837;DHT22;20140;49.356;8.812;2023-04-16T13:23:40;10.10;99.90
33837;DHT22;20140;49.356;8.812;2023-04-16T13:26:05;10.20;99.90
33837;DHT22;20140;49.356;8.812;2023-04-16T13:28:31;10.30;99.90
33837;DHT22;20140;49.356;8.812;2023-04-16T13:30:57;10.20;99.90
33837;DHT22;20140;49.356;8.812;2023-04-16T13:33:22;10.10;99.90
33837;DHT22;20140;49.356;8.812;2023-04-16T13:35:48;10.10;99.90
33837;DHT22;20140;49.356;8.812;2023-04-16T13:38:14;10.10;99.90
33837;DHT22;20140;49.356;8.812;2023-04-16T13:40:40;10.10;99.90
33837;DHT22;20140;49.356;8.812;2023-04-16T13:43:06;10.10;99.90
33837;DHT22;20140;49.356;8.812;2023-04-16T13:45:31;10.10;99.90
33837;DHT22;20140;49.356;8.812;2023-04-16T13:47:57;10.10;99.90
33837;DHT22;20140;49.356;8.812;2023-04-16T13:50:22;10.10;99.90
33837;DHT22;20140;49.356;8.812;2023-04-16T13:52:48;10.20;99.90
33837;DHT22;20140;49.356;8.812;2023-04-16T13:55:14;10.20;99.90
33837;DHT22;20140;49.356;8.812;2023-04-16T13:57:44;10.30;99.90
33837;DHT22;20140;49.356;8.812;2023-04-16T14:00:10;10.40;99.90
33837;DHT22;20140;49.356;8.812;2023-04-16T14:02:36;10.40;99.90
33837;DHT22;20140;49.356;8.812;2023-04-16T14:05:01;10.40;99.90
33837;DHT22;20140;49.356;8.812;2023-04-16T14:07:27;10.30;99.90
33837;DHT22;20140;49.356;8.812;2023-04-16T14:09:53;10.40;99.90
33837;DHT22;20140;49.356;8.812;2023-04-16T14:12:19;10.40;99.90
33837;DHT22;20140;49.356;8.812;2023-04-16T14:14:44;10.40;99.90
33837;DHT22;20140;49.356;8.812;2023-04-16T14:17:10;10.40;99.90
33837;DHT22;20140;49.356;8.812;2023-04-16T14:19:35;10.40;99.90
33837;DHT22;20140;49.356;8.812;2023-04-16T14:22:01;10.30;99.90
33837;DHT22;20140;49.356;8.812;2023-04-16T14:24:27;10.30;99.90
33837;DHT22;20140;49.356;8.812;2023-04-16T14:26:52;10.50;99.90
33837;DHT22;20140;49.356;8.812;2023-04-16T14:29:17;10.50;99.90
33837;DHT22;20140;49.356;8.812;2023-04-16T14:31:43;10.50;99.90
33837;DHT22;20140;49.356;8.812;2023-04-16T14:34:08;10.50;99.90
33837;DHT22;20140;49.356;8.812;2023-04-16T14:36:35;10.50;99.90
33837;DHT22;20140;49.356;8.812;2023-04-16T14:39:00;10.40;99.90
33837;DHT22;20140;49.356;8.812;2023-04-16T14:41:26;10.40;99.90
33837;DHT22;20140;49.356;8.812;2023-04-16T14:43:51;10.40;99.90
33837;DHT22;20140;49.356;8.812;2023-04-16T14:46:17;10.40;99.90
33837;DHT22;20140;49.356;8.812;2023-04-16T14:48:43;10.50;99.90
33837;DHT22;20140;49.356;8.812;2023-04-16T14:51:09;10.50;99.90
33837;DHT22;20140;49.356;8.812;2023-04-16T14:53:37;10.40;99.90
33837;DHT22;20140;49.356;8.812;2023-04-16T14:56:04;10.40;99.90
33837;DHT22;20140;49.356;8.812;2023-04-16T14:58:30;10.40;99.90
33837;DHT22;20140;49.356;8.812;2023-04-16T15:00:57;10.50;99.90
33837;DHT22;20140;49.356;8.812;2023-04-16T15:03:23;10.60;99.90
33837;DHT22;20140;49.356;8.812;2023-04-16T15:05:48;10.60;99.90
33837;DHT22;20140;49.356;8.812;2023-04-16T15:08:19;10.60;99.90
33837;DHT22;20140;49.356;8.812;2023-04-16T15:10:45;10.60;99.90
33837;DHT22;20140;49.356;8.812;2023-04-16T15:13:11;10.60;99.90
33837;DHT22;20140;49.356;8.812;2023-04-16T15:15:36;10.50;99.90
33837;DHT22;20140;49.356;8.812;2023-04-16T15:18:03;10.50;99.90
33837;DHT22;20140;49.356;8.812;2023-04-16T15:20:28;10.60;99.90
33837;DHT22;20140;49.356;8.812;2023-04-16T15:22:54;10.60;99.90
33837;DHT22;20140;49.356;8.812;2023-04-16T15:25:19;10.60;99.90
33837;DHT22;20140;49.356;8.812;2023-04-16T15:27:45;10.60;99.90
33837;DHT22;20140;49.356;8.812;2023-04-16T15:30:12;10.60;99.90
33837;DHT22;20140;49.356;8.812;2023-04-16T15:32:37;10.50;99.90
33837;DHT22;20140;49.356;8.812;2023-04-16T15:35:03;10.50;99.90
33837;DHT22;20140;49.356;8.812;2023-04-16T15:37:29;10.60;99.90
33837;DHT22;20140;49.356;8.812;2023-04-16T15:39:55;10.60;99.90
33837;DHT22;20140;49.356;8.812;2023-04-16T15:42:21;10.60;99.90
33837;DHT22;20140;49.356;8.812;2023-04-16T15:44:47;10.60;99.90
33837;DHT22;20140;49.356;8.812;2023-04-16T15:47:13;10.70;99.90
33837;DHT22;20140;49.356;8.812;2023-04-16T15:49:38;10.80;99.90
33837;DHT22;20140;49.356;8.812;2023-04-16T15:52:04;11.00;99.90
33837;DHT22;20140;49.356;8.812;2023-04-16T15:54:30;11.20;99.90
33837;DHT22;20140;49.356;8.812;2023-04-16T15:56:56;11.00;99.90
33837;DHT22;20140;49.356;8.812;2023-04-16T15:59:24;11.00;99.90
33837;DHT22;20140;49.356;8.812;2023-04-16T16:01:50;10.90;99.90